sensor_id;sensor_type;location;lat;lon;timestamp;temperature;humidity
37285;DHT22;23172;53.550;9.964;2024-03-17T00:04:38;10.00;79.10
37285;DHT22;23172;53.550;9.964;2024-03-17T00:09:41;10.00;79.40
37285;DHT22;23172;53.550;9.964;2024-03-17T00:14:44;10.00;79.80
37285;DHT22;23172;53.550;9.964;2024-03-17T00:19:46;10.00;79.90
37285;DHT22;23172;53.550;9.964;2024-03-17T00:24:48;10.00;80.20
37285;DHT22;23172;53.550;9.964;2024-03-17T00:29:51;9.90;80.60
37285;DHT22;23172;53.550;9.964;2024-03-17T00:34:53;9.90;80.80
37285;DHT22;23172;53.550;9.964;2024-03-17T00:39:55;9.90;81.10
37285;DHT22;23172;53.550;9.964;2024-03-17T00:44:58;9.90;81.20
37285;DHT22;23172;53.550;9.964;2024-03-17T00:50:00;9.90;81.50
37285;DHT22;23172;53.550;9.964;2024-03-17T00:55:03;9.80;81.70
37285;DHT22;23172;53.550;9.964;2024-03-17T01:00:08;9.80;82.00
37285;DHT22;23172;53.550;9.964;2024-03-17T01:05:12;9.80;82.40
37285;DHT22;23172;53.550;9.964;2024-03-17T01:10:14;9.70;82.40
37285;DHT22;23172;53.550;9.964;2024-03-17T01:15:18;9.70;82.70
37285;DHT22;23172;53.550;9.964;2024-03-17T01:20:19;9.70;83.10
37285;DHT22;23172;53.550;9.964;2024-03-17T01:25:21;9.70;83.50
37285;DHT22;23172;53.550;9.964;2024-03-17T01:30:25;9.70;83.60
37285;DHT22;23172;53.550;9.964;2024-03-17T01:35:27;9.80;83.90
37285;DHT22;23172;53.550;9.964;2024-03-17T01:40:29;9.80;84.10
37285;DHT22;23172;53.550;9.964;2024-03-17T01:45:32;9.80;83.90
37285;DHT22;23172;53.550;9.964;2024-03-17T01:50:36;9.80;84.00
37285;DHT22;23172;53.550;9.964;2024-03-17T01:55:38;9.80;84.10
37285;DHT22;23172;53.550;9.964;2024-03-17T02:00:42;9.80;84.30
37285;DHT22;23172;53.550;9.964;2024-03-17T02:05:44;9.80;84.30
37285;DHT22;23172;53.550;9.964;2024-03-17T02:10:52;9.80;84.30
37285;DHT22;23172;53.550;9.964;2024-03-17T02:15:55;9.80;84.40
37285;DHT22;23172;53.550;9.964;2024-03-17T02:20:58;9.80;84.60
37285;DHT22;23172;53.550;9.964;2024-03-17T02:31:07;9.80;84.90
37285;DHT22;23172;53.550;9.964;2024-03-17T02:36:11;9.80;85.20
37285;DHT22;23172;53.550;9.964;2024-03-17T02:41:13;9.80;85.40
37285;DHT22;23172;53.550;9.964;2024-03-17T02:46:17;9.70;85.40
37285;DHT22;23172;53.550;9.964;2024-03-17T02:51:20;9.70;85.50
37285;DHT22;23172;53.550;9.964;2024-03-17T02:56:22;9.70;85.50
37285;DHT22;23172;53.550;9.964;2024-03-17T03:01:25;9.70;85.50
37285;DHT22;23172;53.550;9.964;2024-03-17T03:06:27;9.60;85.60
37285;DHT22;23172;53.550;9.964;2024-03-17T03:11:29;9.60;86.00
37285;DHT22;23172;53.550;9.964;2024-03-17T03:16:32;9.60;86.10
37285;DHT22;23172;53.550;9.964;2024-03-17T03:21:34;9.50;86.30
37285;DHT22;23172;53.550;9.964;2024-03-17T03:26:36;9.50;86.50
37285;DHT22;23172;53.550;9.964;2024-03-17T03:31:40;9.50;86.60
37285;DHT22;23172;53.550;9.964;2024-03-17T03:36:42;9.40;86.60
37285;DHT22;23172;53.550;9.964;2024-03-17T03:41:44;9.40;87.00
37285;DHT22;23172;53.550;9.964;2024-03-17T03:46:47;9.40;87.40
37285;DHT22;23172;53.550;9.964;2024-03-17T03:51:49;9.40;87.50
37285;DHT22;23172;53.550;9.964;2024-03-17T03:56:50;9.40;87.60
37285;DHT22;23172;53.550;9.964;2024-03-17T04:01:54;9.30;87.70
37285;DHT22;23172;53.550;9.964;2024-03-17T04:06:56;9.30;87.80
37285;DHT22;23172;53.550;9.964;2024-03-17T04:11:58;9.30;88.30
37285;DHT22;23172;53.550;9.964;2024-03-17T04:17:02;9.30;88.70
37285;DHT22;23172;53.550;9.964;2024-03-17T04:22:04;9.30;88.90
37285;DHT22;23172;53.550;9.964;2024-03-17T04:27:07;9.30;89.20
37285;DHT22;23172;53.550;9.964;2024-03-17T04:32:10;9.30;89.50
37285;DHT22;23172;53.550;9.964;2024-03-17T04:37:12;9.30;89.60
37285;DHT22;23172;53.550;9.964;2024-03-17T04:42:15;9.30;89.80
37285;DHT22;23172;53.550;9.964;2024-03-17T04:47:18;9.30;89.80
37285;DHT22;23172;53.550;9.964;2024-03-17T04:52:20;9.30;90.00
37285;DHT22;23172;53.550;9.964;2024-03-17T04:57:22;9.30;90.10
37285;DHT22;23172;53.550;9.964;2024-03-17T05:02:25;9.30;90.00
37285;DHT22;23172;53.550;9.964;2024-03-17T05:07:28;9.30;90.20
37285;DHT22;23172;53.550;9.964;2024-03-17T05:12:30;9.30;90.30
37285;DHT22;23172;53.550;9.964;2024-03-17T05:17:33;9.30;90.40
37285;DHT22;23172;53.550;9.964;2024-03-17T05:22:35;9.30;90.40
37285;DHT22;23172;53.550;9.964;2024-03-17T05:27:37;9.30;90.50
37285;DHT22;23172;53.550;9.964;2024-03-17T05:32:41;9.30;90.60
37285;DHT22;23172;53.550;9.964;2024-03-17T05:37:42;9.20;90.60
37285;DHT22;23172;53.550;9.964;2024-03-17T05:42:44;9.20;90.60
37285;DHT22;23172;53.550;9.964;2024-03-17T05:47:49;9.10;90.80
37285;DHT22;23172;53.550;9.964;2024-03-17T05:52:51;9.10;90.90
37285;DHT22;23172;53.550;9.964;2024-03-17T05:57:53;9.10;91.00
37285;DHT22;23172;53.550;9.964;2024-03-17T06:02:56;9.10;91.10
37285;DHT22;23172;53.550;9.964;2024-03-17T06:08:00;9.10;91.10
37285;DHT22;23172;53.550;9.964;2024-03-17T06:13:03;9.00;91.30
37285;DHT22;23172;53.550;9.964;2024-03-17T06:18:06;9.00;91.30
37285;DHT22;23172;53.550;9.964;2024-03-17T06:23:12;9.00;91.40
37285;DHT22;23172;53.550;9.964;2024-03-17T06:28:15;9.00;91.40
37285;DHT22;23172;53.550;9.964;2024-03-17T06:33:18;9.10;91.40
37285;DHT22;23172;53.550;9.964;2024-03-17T06:38:20;9.10;91.40
37285;DHT22;23172;53.550;9.964;2024-03-17T06:43:22;9.10;91.40
37285;DHT22;23172;53.550;9.964;2024-03-17T06:48:26;9.10;91.50
37285;DHT22;23172;53.550;9.964;2024-03-17T06:53:31;9.00;91.50
37285;DHT22;23172;53.550;9.964;2024-03-17T06:58:34;9.00;91.70
37285;DHT22;23172;53.550;9.964;2024-03-17T07:03:37;9.00;91.80
37285;DHT22;23172;53.550;9.964;2024-03-17T07:08:39;9.00;91.80
37285;DHT22;23172;53.550;9.964;2024-03-17T07:13:43;9.00;91.70
37285;DHT22;23172;53.550;9.964;2024-03-17T07:18:46;9.00;91.80
37285;DHT22;23172;53.550;9.964;2024-03-17T07:23:48;9.00;91.60
37285;DHT22;23172;53.550;9.964;2024-03-17T07:28:49;9.10;91.30
37285;DHT22;23172;53.550;9.964;2024-03-17T07:33:53;9.10;91.10
37285;DHT22;23172;53.550;9.964;2024-03-17T07:38:55;9.10;90.80
37285;DHT22;23172;53.550;9.964;2024-03-17T07:43:56;9.10;90.30
37285;DHT22;23172;53.550;9.964;2024-03-17T07:49:00;9.20;90.50
37285;DHT22;23172;53.550;9.964;2024-03-17T07:54:02;9.20;89.70
37285;DHT22;23172;53.550;9.964;2024-03-17T07:59:04;9.20;89.00
37285;DHT22;23172;53.550;9.964;2024-03-17T08:04:13;9.30;88.30
37285;DHT22;23172;53.550;9.964;2024-03-17T08:09:15;9.30;86.80
37285;DHT22;23172;53.550;9.964;2024-03-17T08:14:19;9.30;85.40
37285;DHT22;23172;53.550;9.964;2024-03-17T08:19:22;9.40;83.90
37285;DHT22;23172;53.550;9.964;2024-03-17T08:24:24;9.40;82.80
37285;DHT22;23172;53.550;9.964;2024-03-17T08:29:25;9.50;81.60
37285;DHT22;23172;53.550;9.964;2024-03-17T08:34:29;9.50;80.60
37285;DHT22;23172;53.550;9.964;2024-03-17T08:39:31;9.60;79.60
37285;DHT22;23172;53.550;9.964;2024-03-17T08:44:33;9.60;78.70
37285;DHT22;23172;53.550;9.964;2024-03-17T08:49:36;9.70;77.30
37285;DHT22;23172;53.550;9.964;2024-03-17T08:54:38;9.70;76.70
37285;DHT22;23172;53.550;9.964;2024-03-17T08:59:40;9.80;76.00
37285;DHT22;23172;53.550;9.964;2024-03-17T09:04:43;9.80;75.30
37285;DHT22;23172;53.550;9.964;2024-03-17T09:09:47;9.80;74.70
37285;DHT22;23172;53.550;9.964;2024-03-17T09:14:49;9.90;74.10
37285;DHT22;23172;53.550;9.964;2024-03-17T09:19:52;10.00;73.50
37285;DHT22;23172;53.550;9.964;2024-03-17T09:24:54;10.00;73.10
37285;DHT22;23172;53.550;9.964;2024-03-17T09:29:56;10.10;72.00
37285;DHT22;23172;53.550;9.964;2024-03-17T09:35:00;10.10;70.70
37285;DHT22;23172;53.550;9.964;2024-03-17T09:40:03;10.10;69.80
37285;DHT22;23172;53.550;9.964;2024-03-17T09:45:07;10.20;69.70
37285;DHT22;23172;53.550;9.964;2024-03-17T09:50:14;10.20;69.00
37285;DHT22;23172;53.550;9.964;2024-03-17T09:55:16;10.30;68.50
37285;DHT22;23172;53.550;9.964;2024-03-17T10:00:19;10.40;68.10
37285;DHT22;23172;53.550;9.964;2024-03-17T10:05:24;10.40;67.50
37285;DHT22;23172;53.550;9.964;2024-03-17T10:10:26;10.50;66.90
37285;DHT22;23172;53.550;9.964;2024-03-17T10:15:28;10.50;66.10
37285;DHT22;23172;53.550;9.964;2024-03-17T10:20:31;10.50;65.90
37285;DHT22;23172;53.550;9.964;2024-03-17T10:25:38;10.60;66.00
37285;DHT22;23172;53.550;9.964;2024-03-17T10:30:40;10.60;65.50
37285;DHT22;23172;53.550;9.964;2024-03-17T10:35:44;10.70;65.00
37285;DHT22;23172;53.550;9.964;2024-03-17T10:40:46;10.70;64.50
37285;DHT22;23172;53.550;9.964;2024-03-17T10:45:48;10.70;64.10
37285;DHT22;23172;53.550;9.964;2024-03-17T10:50:53;10.80;64.00
37285;DHT22;23172;53.550;9.964;2024-03-17T10:56:04;10.80;63.80
37285;DHT22;23172;53.550;9.964;2024-03-17T11:01:10;10.90;63.40
37285;DHT22;23172;53.550;9.964;2024-03-17T11:06:14;11.00;63.20
37285;DHT22;23172;53.550;9.964;2024-03-17T11:11:35;11.10;63.10
37285;DHT22;23172;53.550;9.964;2024-03-17T11:16:37;11.20;62.50
37285;DHT22;23172;53.550;9.964;2024-03-17T11:21:41;11.20;62.40
37285;DHT22;23172;53.550;9.964;2024-03-17T11:26:43;11.20;62.20
37285;DHT22;23172;53.550;9.964;2024-03-17T11:31:45;11.30;61.60
37285;DHT22;23172;53.550;9.964;2024-03-17T11:36:55;11.40;61.30
37285;DHT22;23172;53.550;9.964;2024-03-17T11:42:05;11.50;61.20
37285;DHT22;23172;53.550;9.964;2024-03-17T11:47:11;11.60;60.60
37285;DHT22;23172;53.550;9.964;2024-03-17T11:52:15;11.70;60.30
37285;DHT22;23172;53.550;9.964;2024-03-17T11:57:21;11.70;59.90
37285;DHT22;23172;53.550;9.964;2024-03-17T12:02:28;11.80;59.70
37285;DHT22;23172;53.550;9.964;2024-03-17T12:07:42;11.80;59.30
37285;DHT22;23172;53.550;9.964;2024-03-17T12:12:47;11.80;58.80
37285;DHT22;23172;53.550;9.964;2024-03-17T12:17:52;11.80;59.20
37285;DHT22;23172;53.550;9.964;2024-03-17T12:22:55;11.80;59.30
37285;DHT22;23172;53.550;9.964;2024-03-17T12:27:58;11.70;59.00
37285;DHT22;23172;53.550;9.964;2024-03-17T12:33:00;11.70;59.00
37285;DHT22;23172;53.550;9.964;2024-03-17T12:38:19;11.70;58.90
37285;DHT22;23172;53.550;9.964;2024-03-17T12:43:22;11.80;58.60
37285;DHT22;23172;53.550;9.964;2024-03-17T12:48:26;11.80;58.30
37285;DHT22;23172;53.550;9.964;2024-03-17T12:53:29;11.70;58.10
37285;DHT22;23172;53.550;9.964;2024-03-17T12:58:31;11.70;58.00
37285;DHT22;23172;53.550;9.964;2024-03-17T13:03:50;11.70;58.00
37285;DHT22;23172;53.550;9.964;2024-03-17T13:08:54;11.80;58.00
37285;DHT22;23172;53.550;9.964;2024-03-17T13:13:55;11.80;57.80
37285;DHT22;23172;53.550;9.964;2024-03-17T13:18:57;11.80;57.50
37285;DHT22;23172;53.550;9.964;2024-03-17T13:24:00;11.80;57.50
37285;DHT22;23172;53.550;9.964;2024-03-17T13:29:02;11.80;57.40
37285;DHT22;23172;53.550;9.964;2024-03-17T13:34:04;11.80;57.40
37285;DHT22;23172;53.550;9.964;2024-03-17T13:39:07;11.80;57.40
37285;DHT22;23172;53.550;9.964;2024-03-17T13:44:10;11.90;57.60
37285;DHT22;23172;53.550;9.964;2024-03-17T13:49:12;11.90;57.50
37285;DHT22;23172;53.550;9.964;2024-03-17T13:54:15;11.90;57.50
37285;DHT22;23172;53.550;9.964;2024-03-17T13:59:17;12.00;57.20
37285;DHT22;23172;53.550;9.964;2024-03-17T14:04:19;12.00;57.10
37285;DHT22;23172;53.550;9.964;2024-03-17T14:09:22;12.00;56.90
37285;DHT22;23172;53.550;9.964;2024-03-17T14:14:24;12.10;56.90
37285;DHT22;23172;53.550;9.964;2024-03-17T14:19:26;12.10;56.80
37285;DHT22;23172;53.550;9.964;2024-03-17T14:24:29;12.10;56.60
37285;DHT22;23172;53.550;9.964;2024-03-17T14:29:31;12.20;56.60
37285;DHT22;23172;53.550;9.964;2024-03-17T14:34:33;12.30;56.50
37285;DHT22;23172;53.550;9.964;2024-03-17T14:39:38;12.30;57.10
37285;DHT22;23172;53.550;9.964;2024-03-17T14:44:40;12.40;56.60
37285;DHT22;23172;53.550;9.964;2024-03-17T14:49:42;12.40;56.60
37285;DHT22;23172;53.550;9.964;2024-03-17T14:54:47;12.50;56.40
37285;DHT22;23172;53.550;9.964;2024-03-17T14:59:49;12.50;56.20
37285;DHT22;23172;53.550;9.964;2024-03-17T15:04:51;12.60;56.20
37285;DHT22;23172;53.550;9.964;2024-03-17T15:09:54;12.60;56.20
37285;DHT22;23172;53.550;9.964;2024-03-17T15:14:56;12.60;56.10
37285;DHT22;23172;53.550;9.964;2024-03-17T15:19:58;12.60;56.00
37285;DHT22;23172;53.550;9.964;2024-03-17T15:25:01;12.60;56.00
37285;DHT22;23172;53.550;9.964;2024-03-17T15:30:06;12.60;55.90
37285;DHT22;23172;53.550;9.964;2024-03-17T15:35:09;12.60;55.90
37285;DHT22;23172;53.550;9.964;2024-03-17T15:40:14;12.60;56.30
37285;DHT22;23172;53.550;9.964;2024-03-17T15:45:18;12.60;55.90
37285;DHT22;23172;53.550;9.964;2024-03-17T15:50:21;12.60;56.10
37285;DHT22;23172;53.550;9.964;2024-03-17T15:55:24;12.60;56.30
37285;DHT22;23172;53.550;9.964;2024-03-17T16:00:26;12.60;56.40
37285;DHT22;23172;53.550;9.964;2024-03-17T16:05:29;12.50;56.60
37285;DHT22;23172;53.550;9.964;2024-03-17T16:10:33;12.50;56.80
37285;DHT22;23172;53.550;9.964;2024-03-17T16:15:35;12.50;56.90
37285;DHT22;23172;53.550;9.964;2024-03-17T16:21:01;12.40;57.00
37285;DHT22;23172;53.550;9.964;2024-03-17T16:26:06;12.40;57.20
37285;DHT22;23172;53.550;9.964;2024-03-17T16:31:08;12.40;57.20
37285;DHT22;23172;53.550;9.964;2024-03-17T16:36:10;12.30;57.20
37285;DHT22;23172;53.550;9.964;2024-03-17T16:41:13;12.20;57.50
37285;DHT22;23172;53.550;9.964;2024-03-17T16:46:31;12.20;57.60
37285;DHT22;23172;53.550;9.964;2024-03-17T16:51:38;12.20;57.60
37285;DHT22;23172;53.550;9.964;2024-03-17T16:56:41;12.10;57.80
37285;DHT22;23172;53.550;9.964;2024-03-17T17:01:43;12.00;57.90
37285;DHT22;23172;53.550;9.964;2024-03-17T17:06:45;12.00;58.00
37285;DHT22;23172;53.550;9.964;2024-03-17T17:11:49;12.00;58.10
37285;DHT22;23172;53.550;9.964;2024-03-17T17:16:52;12.00;58.30
37285;DHT22;23172;53.550;9.964;2024-03-17T17:21:55;11.90;58.30
37285;DHT22;23172;53.550;9.964;2024-03-17T17:26:59;11.90;58.20
37285;DHT22;23172;53.550;9.964;2024-03-17T17:32:04;11.80;58.20
37285;DHT22;23172;53.550;9.964;2024-03-17T17:37:07;11.80;58.30
37285;DHT22;23172;53.550;9.964;2024-03-17T17:42:13;11.80;58.30
37285;DHT22;23172;53.550;9.964;2024-03-17T17:47:16;11.80;58.30
37285;DHT22;23172;53.550;9.964;2024-03-17T17:52:18;11.70;58.30
37285;DHT22;23172;53.550;9.964;2024-03-17T17:57:22;11.70;58.50
37285;DHT22;23172;53.550;9.964;2024-03-17T18:02:27;11.70;58.70
37285;DHT22;23172;53.550;9.964;2024-03-17T18:07:29;11.60;58.80
37285;DHT22;23172;53.550;9.964;2024-03-17T18:12:33;11.60;59.00
37285;DHT22;23172;53.550;9.964;2024-03-17T18:17:35;11.60;59.00
37285;DHT22;23172;53.550;9.964;2024-03-17T18:22:37;11.50;59.10
37285;DHT22;23172;53.550;9.964;2024-03-17T18:27:40;11.50;59.20
37285;DHT22;23172;53.550;9.964;2024-03-17T18:32:41;11.40;59.20
37285;DHT22;23172;53.550;9.964;2024-03-17T18:37:43;11.30;59.30
37285;DHT22;23172;53.550;9.964;2024-03-17T18:42:47;11.30;59.40
37285;DHT22;23172;53.550;9.964;2024-03-17T18:47:50;11.20;59.50
37285;DHT22;23172;53.550;9.964;2024-03-17T18:52:52;11.20;59.70
37285;DHT22;23172;53.550;9.964;2024-03-17T18:57:57;11.10;59.80
37285;DHT22;23172;53.550;9.964;2024-03-17T19:02:59;11.10;59.90
37285;DHT22;23172;53.550;9.964;2024-03-17T19:08:01;11.00;59.90
37285;DHT22;23172;53.550;9.964;2024-03-17T19:13:04;10.90;59.90
37285;DHT22;23172;53.550;9.964;2024-03-17T19:18:07;10.90;60.10
37285;DHT22;23172;53.550;9.964;2024-03-17T19:23:10;10.90;60.20
37285;DHT22;23172;53.550;9.964;2024-03-17T19:28:13;10.80;60.30
37285;DHT22;23172;53.550;9.964;2024-03-17T19:33:15;10.80;60.50
37285;DHT22;23172;53.550;9.964;2024-03-17T19:38:17;10.80;60.70
37285;DHT22;23172;53.550;9.964;2024-03-17T19:43:20;10.80;60.80
37285;DHT22;23172;53.550;9.964;2024-03-17T19:48:22;10.70;60.80
37285;DHT22;23172;53.550;9.964;2024-03-17T19:53:24;10.70;61.00
37285;DHT22;23172;53.550;9.964;2024-03-17T19:58:27;10.70;61.10
37285;DHT22;23172;53.550;9.964;2024-03-17T20:03:29;10.60;61.30
37285;DHT22;23172;53.550;9.964;2024-03-17T20:08:31;10.60;61.60
37285;DHT22;23172;53.550;9.964;2024-03-17T20:13:36;10.50;61.50
37285;DHT22;23172;53.550;9.964;2024-03-17T20:18:38;10.50;61.80
37285;DHT22;23172;53.550;9.964;2024-03-17T20:23:39;10.50;61.90
37285;DHT22;23172;53.550;9.964;2024-03-17T20:28:43;10.40;62.00
37285;DHT22;23172;53.550;9.964;2024-03-17T20:33:45;10.40;62.00
37285;DHT22;23172;53.550;9.964;2024-03-17T20:38:48;10.40;62.10
37285;DHT22;23172;53.550;9.964;2024-03-17T20:43:51;10.30;62.40
37285;DHT22;23172;53.550;9.964;2024-03-17T20:48:53;10.30;63.40
37285;DHT22;23172;53.550;9.964;2024-03-17T20:53:54;10.20;62.60
37285;DHT22;23172;53.550;9.964;2024-03-17T20:58:58;10.20;62.70
37285;DHT22;23172;53.550;9.964;2024-03-17T21:03:59;10.20;62.60
37285;DHT22;23172;53.550;9.964;2024-03-17T21:09:01;10.10;62.50
37285;DHT22;23172;53.550;9.964;2024-03-17T21:14:06;10.10;62.50
37285;DHT22;23172;53.550;9.964;2024-03-17T21:19:08;10.10;62.40
37285;DHT22;23172;53.550;9.964;2024-03-17T21:24:10;10.00;62.10
37285;DHT22;23172;53.550;9.964;2024-03-17T21:29:13;10.00;62.00
37285;DHT22;23172;53.550;9.964;2024-03-17T21:34:15;10.00;62.00
37285;DHT22;23172;53.550;9.964;2024-03-17T21:39:17;10.00;61.80
37285;DHT22;23172;53.550;9.964;2024-03-17T21:44:21;10.00;61.90
37285;DHT22;23172;53.550;9.964;2024-03-17T21:49:26;10.00;61.80
37285;DHT22;23172;53.550;9.964;2024-03-17T21:54:28;10.00;61.90
37285;DHT22;23172;53.550;9.964;2024-03-17T21:59:32;9.90;61.70
37285;DHT22;23172;53.550;9.964;2024-03-17T22:04:34;9.90;61.80
37285;DHT22;23172;53.550;9.964;2024-03-17T22:09:36;9.90;61.80
37285;DHT22;23172;53.550;9.964;2024-03-17T22:14:39;9.90;61.90
37285;DHT22;23172;53.550;9.964;2024-03-17T22:19:41;9.90;62.10
37285;DHT22;23172;53.550;9.964;2024-03-17T22:24:42;9.80;62.20
37285;DHT22;23172;53.550;9.964;2024-03-17T22:29:46;9.80;62.20
37285;DHT22;23172;53.550;9.964;2024-03-17T22:34:47;9.70;62.30
37285;DHT22;23172;53.550;9.964;2024-03-17T22:39:50;9.60;62.40
37285;DHT22;23172;53.550;9.964;2024-03-17T22:44:54;9.50;62.60
37285;DHT22;23172;53.550;9.964;2024-03-17T22:49:56;9.50;62.80
37285;DHT22;23172;53.550;9.964;2024-03-17T22:55:00;9.50;62.80
37285;DHT22;23172;53.550;9.964;2024-03-17T23:00:04;9.50;63.60
37285;DHT22;23172;53.550;9.964;2024-03-17T23:05:17;9.50;63.00
37285;DHT22;23172;53.550;9.964;2024-03-17T23:10:19;9.40;63.00
37285;DHT22;23172;53.550;9.964;2024-03-17T23:15:22;9.40;63.10
37285;DHT22;23172;53.550;9.964;2024-03-17T23:20:24;9.30;63.40
37285;DHT22;23172;53.550;9.964;2024-03-17T23:25:26;9.30;63.70
37285;DHT22;23172;53.550;9.964;2024-03-17T23:30:29;9.30;63.70
37285;DHT22;23172;53.550;9.964;2024-03-17T23:35:31;9.30;63.90
37285;DHT22;23172;53.550;9.964;2024-03-17T23:40:34;9.20;64.00
37285;DHT22;23172;53.550;9.964;2024-03-17T23:45:37;9.20;64.20
37285;DHT22;23172;53.550;9.964;2024-03-17T23:50:39;9.20;64.40
37285;DHT22;23172;53.550;9.964;2024-03-17T23:55:41;9.20;64.50
